createdAt,value
2022-07-31T00:00:31.879Z,0.00
2022-07-31T00:01:31.845Z,0.00
2022-07-31T00:02:31.822Z,0.00
2022-07-31T00:03:31.875Z,0.00
2022-07-31T00:04:31.789Z,0.00
2022-07-31T00:05:31.795Z,0.00
2022-07-31T00:06:31.760Z,0.00
2022-07-31T00:07:31.742Z,0.00
2022-07-31T00:08:31.734Z,0.00
2022-07-31T00:09:52.449Z,0.00
2022-07-31T00:10:31.711Z,0.00
2022-07-31T00:11:31.675Z,0.00
2022-07-31T00:12:31.665Z,0.00
2022-07-31T00:13:58.194Z,0.00
2022-07-31T00:14:31.634Z,0.00
2022-07-31T00:15:31.630Z,0.00
2022-07-31T00:16:31.617Z,0.00
2022-07-31T00:17:31.581Z,0.00
2022-07-31T00:18:31.573Z,0.00
2022-07-31T00:19:31.565Z,0.00
2022-07-31T00:20:31.567Z,0.00
2022-07-31T00:21:31.533Z,0.00
2022-07-31T00:22:31.505Z,0.00
2022-07-31T00:23:31.500Z,0.00
2022-07-31T00:24:31.495Z,0.00
2022-07-31T00:25:31.456Z,0.00
2022-07-31T00:26:31.438Z,0.00
2022-07-31T00:27:31.434Z,0.00
2022-07-31T00:28:31.407Z,0.00
2022-07-31T00:29:31.389Z,0.00
2022-07-31T00:30:31.392Z,0.00
2022-07-31T00:31:31.355Z,0.00
2022-07-31T00:32:31.343Z,0.00
2022-07-31T00:33:31.342Z,0.00
2022-07-31T00:34:31.318Z,0.00
2022-07-31T00:35:31.293Z,0.00
2022-07-31T00:36:31.284Z,0.00
2022-07-31T00:37:31.283Z,0.00
2022-07-31T00:38:31.268Z,0.00
2022-07-31T00:39:31.228Z,0.00
2022-07-31T00:40:31.232Z,0.00
2022-07-31T00:41:31.216Z,0.00
2022-07-31T00:42:31.186Z,0.00
2022-07-31T00:43:31.167Z,0.00
2022-07-31T00:44:31.502Z,0.00
2022-07-31T00:45:31.776Z,0.00
2022-07-31T00:46:31.115Z,0.00
2022-07-31T00:47:31.104Z,0.00
2022-07-31T00:48:31.087Z,0.00
2022-07-31T00:49:37.282Z,0.00
2022-07-31T00:50:31.068Z,0.00
2022-07-31T00:51:31.034Z,0.00
2022-07-31T00:52:31.018Z,0.00
2022-07-31T00:53:31.022Z,0.00
2022-07-31T00:54:30.984Z,0.00
2022-07-31T00:55:30.974Z,0.00
2022-07-31T00:56:30.971Z,0.00
2022-07-31T00:57:30.947Z,0.00
2022-07-31T00:58:30.923Z,0.00
2022-07-31T00:59:30.907Z,0.00
2022-07-31T01:00:30.890Z,0.00
2022-07-31T01:01:31.013Z,0.00
2022-07-31T01:02:30.860Z,0.00
2022-07-31T01:03:30.860Z,0.00
2022-07-31T01:04:31.150Z,0.00
2022-07-31T01:05:30.809Z,0.00
2022-07-31T01:06:30.794Z,0.00
2022-07-31T01:07:30.796Z,0.00
2022-07-31T01:08:30.761Z,0.00
2022-07-31T01:09:30.743Z,0.00
2022-07-31T01:10:30.723Z,0.00
2022-07-31T01:11:30.710Z,0.00
2022-07-31T01:12:30.715Z,0.00
2022-07-31T01:13:30.694Z,0.00
2022-07-31T01:14:30.665Z,0.00
2022-07-31T01:15:30.644Z,0.00
2022-07-31T01:16:30.638Z,0.00
2022-07-31T01:17:30.614Z,0.00
2022-07-31T01:18:30.625Z,0.00
2022-07-31T01:19:37.956Z,0.00
2022-07-31T01:20:30.567Z,0.00
2022-07-31T01:21:30.551Z,0.00
2022-07-31T01:22:33.140Z,0.00
2022-07-31T01:23:30.533Z,0.00
2022-07-31T01:24:30.502Z,0.00
2022-07-31T01:25:30.507Z,0.00
2022-07-31T01:26:30.469Z,0.00
2022-07-31T01:27:30.452Z,0.00
2022-07-31T01:28:30.465Z,0.00
2022-07-31T01:29:30.419Z,0.00
2022-07-31T01:30:30.994Z,0.00
2022-07-31T01:31:30.403Z,0.00
2022-07-31T01:32:30.372Z,0.00
2022-07-31T01:33:30.356Z,0.00
2022-07-31T01:34:30.362Z,0.00
2022-07-31T01:35:30.326Z,0.00
2022-07-31T01:36:30.307Z,0.00
2022-07-31T01:37:30.292Z,0.00
2022-07-31T01:38:30.293Z,0.00
2022-07-31T01:39:34.001Z,0.00
2022-07-31T01:40:30.266Z,0.00
2022-07-31T01:41:30.232Z,0.00
2022-07-31T01:42:30.207Z,0.00
2022-07-31T01:43:30.194Z,0.00
2022-07-31T01:44:30.193Z,0.00
2022-07-31T01:45:30.161Z,0.00
2022-07-31T01:46:30.142Z,0.00
2022-07-31T01:47:30.141Z,0.00
2022-07-31T01:48:30.141Z,0.00
2022-07-31T01:49:30.184Z,0.00
2022-07-31T01:50:43.705Z,0.00
2022-07-31T01:51:30.066Z,0.00
2022-07-31T01:52:30.051Z,0.00
2022-07-31T01:53:30.034Z,0.00
2022-07-31T01:54:30.012Z,0.00
2022-07-31T01:55:30.000Z,0.00
2022-07-31T01:56:29.998Z,0.00
2022-07-31T01:57:29.969Z,0.00
2022-07-31T01:58:29.952Z,0.00
2022-07-31T01:59:29.937Z,0.00
2022-07-31T02:00:34.542Z,0.00
2022-07-31T02:01:29.989Z,0.00
2022-07-31T02:02:29.883Z,0.00
2022-07-31T02:03:44.163Z,0.00
2022-07-31T02:04:29.857Z,0.00
2022-07-31T02:05:29.846Z,0.00
2022-07-31T02:06:29.837Z,0.00
2022-07-31T02:07:29.819Z,0.00
2022-07-31T02:08:29.794Z,0.00
2022-07-31T02:09:29.772Z,0.00
2022-07-31T02:10:29.758Z,0.00
2022-07-31T02:11:29.757Z,0.00
2022-07-31T02:12:32.184Z,0.00
2022-07-31T02:13:29.729Z,0.00
2022-07-31T02:14:29.714Z,0.00
2022-07-31T02:15:29.675Z,0.00
2022-07-31T02:16:29.684Z,0.00
2022-07-31T02:17:29.638Z,0.00
2022-07-31T02:18:29.630Z,0.00
2022-07-31T02:19:31.130Z,0.00
2022-07-31T02:20:29.595Z,0.00
2022-07-31T02:21:29.577Z,0.00
2022-07-31T02:22:29.596Z,0.00
2022-07-31T02:23:29.544Z,0.00
2022-07-31T02:24:29.562Z,0.00
2022-07-31T02:25:29.511Z,0.00
2022-07-31T02:26:29.507Z,0.00
2022-07-31T02:27:54.310Z,0.00
2022-07-31T02:28:29.461Z,0.00
2022-07-31T02:29:29.445Z,0.00
2022-07-31T02:30:38.969Z,0.00
2022-07-31T02:31:29.945Z,0.00
2022-07-31T02:32:29.399Z,0.00
2022-07-31T02:33:30.463Z,0.00
2022-07-31T02:34:30.145Z,0.00
2022-07-31T02:35:29.344Z,0.00
2022-07-31T02:36:29.333Z,0.00
2022-07-31T02:37:29.333Z,0.00
2022-07-31T02:38:29.300Z,0.00
2022-07-31T02:39:30.768Z,0.00
2022-07-31T02:40:29.262Z,0.00
2022-07-31T02:41:29.252Z,0.00
2022-07-31T02:42:29.229Z,0.00
2022-07-31T02:43:29.237Z,0.00
2022-07-31T02:44:29.946Z,0.00
2022-07-31T02:45:29.184Z,0.00
2022-07-31T02:46:29.185Z,0.00
2022-07-31T02:47:29.150Z,0.00
2022-07-31T02:48:29.132Z,0.00
2022-07-31T02:49:29.183Z,0.00
2022-07-31T02:50:29.120Z,0.00
2022-07-31T02:51:29.085Z,0.00
2022-07-31T02:52:29.089Z,0.00
2022-07-31T02:53:29.056Z,0.00
2022-07-31T02:54:29.043Z,0.00
2022-07-31T02:55:29.027Z,0.00
2022-07-31T02:56:29.004Z,0.00
2022-07-31T02:57:29.006Z,0.00
2022-07-31T02:58:28.970Z,0.00
2022-07-31T02:59:28.957Z,0.00
2022-07-31T03:00:28.991Z,0.00
2022-07-31T03:01:28.917Z,0.00
2022-07-31T03:02:37.788Z,0.00
2022-07-31T03:03:28.883Z,0.00
2022-07-31T03:04:28.894Z,0.00
2022-07-31T03:05:28.873Z,0.00
2022-07-31T03:06:28.834Z,0.00
2022-07-31T03:07:28.841Z,0.00
2022-07-31T03:08:28.802Z,0.00
2022-07-31T03:09:28.782Z,0.00
2022-07-31T03:10:28.769Z,0.00
2022-07-31T03:11:28.752Z,0.00
2022-07-31T03:12:28.747Z,0.00
2022-07-31T03:13:28.739Z,0.00
2022-07-31T03:14:30.965Z,0.00
2022-07-31T03:15:28.682Z,0.00
2022-07-31T03:16:28.668Z,0.00
2022-07-31T03:17:38.096Z,0.00
2022-07-31T03:18:28.651Z,0.00
2022-07-31T03:19:28.617Z,0.00
2022-07-31T03:20:28.613Z,0.00
2022-07-31T03:21:28.587Z,0.00
2022-07-31T03:22:28.569Z,0.00
2022-07-31T03:23:28.570Z,0.00
2022-07-31T03:24:28.538Z,0.00
2022-07-31T03:25:28.518Z,0.00
2022-07-31T03:26:28.500Z,0.00
2022-07-31T03:27:28.516Z,0.00
2022-07-31T03:28:28.486Z,0.00
2022-07-31T03:29:39.207Z,0.00
2022-07-31T03:30:28.439Z,0.00
2022-07-31T03:31:28.413Z,4.00
2022-07-31T03:32:28.423Z,4.00
2022-07-31T03:33:28.402Z,0.00
2022-07-31T03:34:28.423Z,0.00
2022-07-31T03:35:28.361Z,4.00
2022-07-31T03:36:28.331Z,4.00
2022-07-31T03:37:28.315Z,0.00
2022-07-31T03:38:38.264Z,4.00
2022-07-31T03:39:28.277Z,4.00
2022-07-31T03:40:28.287Z,4.00
2022-07-31T03:41:28.247Z,8.00
2022-07-31T03:42:28.243Z,8.00
2022-07-31T03:43:28.218Z,8.00
2022-07-31T03:44:28.206Z,8.00
2022-07-31T03:45:28.209Z,12.00
2022-07-31T03:46:28.162Z,12.00
2022-07-31T03:47:28.148Z,12.00
2022-07-31T03:48:28.152Z,16.00
2022-07-31T03:49:28.269Z,20.00
2022-07-31T03:50:28.117Z,20.00
2022-07-31T03:51:28.083Z,24.00
2022-07-31T03:52:28.086Z,32.00
2022-07-31T03:53:28.068Z,32.00
2022-07-31T03:54:28.029Z,36.00
2022-07-31T03:55:28.014Z,40.00
2022-07-31T03:56:27.999Z,44.00
2022-07-31T03:57:31.101Z,48.00
2022-07-31T03:58:27.988Z,52.00
2022-07-31T03:59:27.949Z,56.00
2022-07-31T04:00:27.936Z,60.00
2022-07-31T04:01:27.950Z,64.00
2022-07-31T04:02:27.966Z,64.00
2022-07-31T04:03:27.881Z,68.00
2022-07-31T04:04:27.868Z,72.00
2022-07-31T04:05:27.870Z,76.00
2022-07-31T04:06:27.829Z,80.00
2022-07-31T04:07:27.821Z,88.00
2022-07-31T04:08:27.798Z,92.00
2022-07-31T04:09:27.829Z,100.00
2022-07-31T04:10:27.765Z,104.00
2022-07-31T04:11:27.770Z,108.00
2022-07-31T04:12:27.733Z,108.00
2022-07-31T04:13:27.734Z,116.00
2022-07-31T04:14:27.697Z,116.00
2022-07-31T04:15:27.682Z,124.00
2022-07-31T04:16:27.696Z,128.00
2022-07-31T04:17:27.650Z,132.00
2022-07-31T04:18:27.627Z,136.00
2022-07-31T04:19:27.636Z,132.00
2022-07-31T04:20:27.596Z,136.00
2022-07-31T04:21:27.597Z,140.00
2022-07-31T04:22:27.559Z,140.00
2022-07-31T04:23:32.414Z,144.00
2022-07-31T04:24:27.529Z,152.00
2022-07-31T04:25:27.515Z,156.00
2022-07-31T04:26:27.496Z,156.00
2022-07-31T04:27:27.476Z,160.00
2022-07-31T04:28:27.459Z,160.00
2022-07-31T04:29:27.466Z,164.00
2022-07-31T04:30:27.450Z,168.00
2022-07-31T04:31:27.414Z,176.00
2022-07-31T04:32:27.394Z,180.00
2022-07-31T04:33:27.383Z,188.00
2022-07-31T04:34:27.370Z,204.00
2022-07-31T04:35:27.361Z,224.00
2022-07-31T04:36:29.559Z,248.00
2022-07-31T04:37:27.308Z,264.00
2022-07-31T04:38:27.289Z,280.00
2022-07-31T04:39:27.291Z,300.00
2022-07-31T04:40:27.279Z,308.00
2022-07-31T04:41:27.245Z,324.00
2022-07-31T04:42:27.242Z,344.00
2022-07-31T04:43:27.209Z,364.00
2022-07-31T04:44:27.195Z,384.00
2022-07-31T04:45:27.218Z,400.00
2022-07-31T04:46:27.161Z,408.00
2022-07-31T04:47:27.143Z,412.00
2022-07-31T04:48:27.129Z,400.00
2022-07-31T04:49:27.166Z,392.00
2022-07-31T04:50:27.108Z,392.00
2022-07-31T04:51:27.088Z,372.00
2022-07-31T04:52:27.056Z,320.00
2022-07-31T04:53:27.056Z,280.00
2022-07-31T04:54:27.024Z,252.00
2022-07-31T04:55:27.015Z,244.00
2022-07-31T04:56:26.993Z,240.00
2022-07-31T04:57:26.977Z,240.00
2022-07-31T04:58:26.984Z,244.00
2022-07-31T04:59:59.119Z,252.00
2022-07-31T05:00:26.925Z,268.00
2022-07-31T05:01:26.971Z,284.00
2022-07-31T05:02:26.888Z,300.00
2022-07-31T05:03:26.870Z,324.00
2022-07-31T05:04:26.875Z,348.00
2022-07-31T05:05:26.836Z,372.00
2022-07-31T05:06:26.824Z,380.00
2022-07-31T05:07:29.019Z,384.00
2022-07-31T05:08:26.805Z,388.00
2022-07-31T05:09:26.790Z,388.00
2022-07-31T05:10:26.752Z,380.00
2022-07-31T05:11:26.742Z,380.00
2022-07-31T05:12:26.725Z,380.00
2022-07-31T05:13:26.724Z,388.00
2022-07-31T05:14:27.261Z,400.00
2022-07-31T05:15:26.693Z,412.00
2022-07-31T05:16:26.649Z,424.00
2022-07-31T05:17:26.653Z,432.00
2022-07-31T05:18:26.619Z,440.00
2022-07-31T05:19:26.603Z,440.00
2022-07-31T05:20:26.584Z,432.00
2022-07-31T05:21:26.604Z,432.00
2022-07-31T05:22:26.551Z,444.00
2022-07-31T05:23:26.542Z,468.00
2022-07-31T05:24:33.467Z,496.00
2022-07-31T05:25:26.502Z,528.00
2022-07-31T05:26:26.497Z,560.00
2022-07-31T05:27:26.485Z,572.00
2022-07-31T05:28:29.935Z,576.00
2022-07-31T05:29:26.437Z,564.00
2022-07-31T05:30:30.155Z,572.00
2022-07-31T05:31:26.399Z,600.00
2022-07-31T05:32:26.401Z,628.00
2022-07-31T05:33:26.370Z,664.00
2022-07-31T05:34:26.361Z,696.00
2022-07-31T05:35:26.336Z,720.00
2022-07-31T05:36:26.337Z,732.00
2022-07-31T05:37:26.301Z,784.00
2022-07-31T05:38:26.307Z,776.00
2022-07-31T05:39:26.268Z,728.00
2022-07-31T05:40:26.264Z,720.00
2022-07-31T05:41:26.236Z,728.00
2022-07-31T05:42:26.236Z,748.00
2022-07-31T05:43:26.196Z,784.00
2022-07-31T05:44:26.217Z,772.00
2022-07-31T05:45:26.157Z,768.00
2022-07-31T05:46:26.146Z,764.00
2022-07-31T05:47:26.132Z,768.00
2022-07-31T05:48:26.114Z,776.00
2022-07-31T05:49:26.145Z,808.00
2022-07-31T05:50:26.102Z,832.00
2022-07-31T05:51:26.065Z,880.00
2022-07-31T05:52:26.052Z,920.00
2022-07-31T05:53:26.029Z,936.00
2022-07-31T05:54:26.022Z,948.00
2022-07-31T05:55:26.015Z,948.00
2022-07-31T05:56:25.981Z,984.00
2022-07-31T05:57:32.902Z,992.00
2022-07-31T05:58:25.953Z,980.00
2022-07-31T05:59:25.952Z,984.00
2022-07-31T06:00:25.913Z,1016.00
2022-07-31T06:01:25.946Z,1072.00
2022-07-31T06:02:25.880Z,1112.00
2022-07-31T06:05:19.454Z,1372.00
2022-07-31T06:06:19.473Z,1408.00
2022-07-31T06:07:19.402Z,1432.00
2022-07-31T06:08:19.380Z,1444.00
2022-07-31T06:09:19.367Z,1468.00
2022-07-31T06:10:19.365Z,1384.00
2022-07-31T06:11:19.336Z,1312.00
2022-07-31T06:12:19.341Z,1324.00
2022-07-31T06:13:19.302Z,1364.00
2022-07-31T06:14:19.297Z,1364.00
2022-07-31T06:15:19.263Z,1296.00
2022-07-31T06:16:19.272Z,1244.00
2022-07-31T06:17:19.254Z,1148.00
2022-07-31T06:18:19.233Z,1076.00
2022-07-31T06:19:19.212Z,1028.00
2022-07-31T06:20:19.211Z,1004.00
2022-07-31T06:21:40.172Z,980.00
2022-07-31T06:22:19.170Z,972.00
2022-07-31T06:23:22.906Z,972.00
2022-07-31T06:24:19.119Z,980.00
2022-07-31T06:25:19.102Z,996.00
2022-07-31T06:26:19.090Z,1008.00
2022-07-31T06:27:22.667Z,1016.00
2022-07-31T06:28:19.051Z,1004.00
2022-07-31T06:29:19.059Z,1000.00
2022-07-31T06:30:19.056Z,1000.00
2022-07-31T06:31:19.004Z,1000.00
2022-07-31T06:32:18.984Z,1000.00
2022-07-31T06:33:36.632Z,1008.00
2022-07-31T06:34:20.090Z,996.00
2022-07-31T06:35:18.940Z,1012.00
2022-07-31T06:36:18.953Z,1016.00
2022-07-31T06:37:18.911Z,1008.00
2022-07-31T06:38:18.884Z,1000.00
2022-07-31T06:39:18.871Z,1008.00
2022-07-31T06:40:18.863Z,1016.00
2022-07-31T06:41:18.836Z,1036.00
2022-07-31T06:42:18.833Z,1060.00
2022-07-31T06:43:18.799Z,1080.00
2022-07-31T06:44:18.786Z,1096.00
2022-07-31T06:45:41.614Z,1132.00
2022-07-31T06:46:18.778Z,1152.00
2022-07-31T06:47:18.756Z,1156.00
2022-07-31T06:48:18.721Z,1180.00
2022-07-31T06:49:18.794Z,1180.00
2022-07-31T06:50:18.705Z,1136.00
2022-07-31T06:51:32.970Z,1076.00
2022-07-31T06:52:18.680Z,1044.00
2022-07-31T06:53:18.641Z,1024.00
2022-07-31T06:54:18.634Z,1008.00
2022-07-31T06:55:18.599Z,1032.00
2022-07-31T06:56:18.625Z,1032.00
2022-07-31T06:57:18.623Z,1036.00
2022-07-31T06:58:18.552Z,1056.00
2022-07-31T06:59:40.213Z,1104.00
2022-07-31T07:00:20.314Z,1160.00
2022-07-31T07:01:18.559Z,1204.00
2022-07-31T07:02:18.504Z,1204.00
2022-07-31T07:03:18.486Z,1236.00
2022-07-31T07:04:18.451Z,1280.00
2022-07-31T07:05:18.436Z,1332.00
2022-07-31T07:06:18.439Z,1396.00
2022-07-31T07:07:18.406Z,1420.00
2022-07-31T07:08:18.403Z,1436.00
2022-07-31T07:09:18.371Z,1428.00
2022-07-31T07:10:18.355Z,1444.00
2022-07-31T07:11:18.335Z,1428.00
2022-07-31T07:12:18.320Z,1416.00
2022-07-31T07:13:18.323Z,1436.00
2022-07-31T07:14:18.289Z,1504.00
2022-07-31T07:15:18.276Z,1580.00
2022-07-31T07:16:18.266Z,1596.00
2022-07-31T07:17:18.240Z,1552.00
2022-07-31T07:18:18.219Z,1608.00
2022-07-31T07:19:18.228Z,1616.00
2022-07-31T07:20:18.232Z,1536.00
2022-07-31T07:21:18.183Z,1428.00
2022-07-31T07:22:18.157Z,1332.00
2022-07-31T07:23:18.141Z,1344.00
2022-07-31T07:24:18.119Z,1384.00
2022-07-31T07:25:18.155Z,1464.00
2022-07-31T07:26:18.085Z,1540.00
2022-07-31T07:27:18.093Z,1576.00
2022-07-31T07:28:30.700Z,1660.00
2022-07-31T07:29:18.040Z,1820.00
2022-07-31T07:30:18.025Z,1804.00
2022-07-31T07:31:18.019Z,1616.00
2022-07-31T07:32:17.983Z,1640.00
2022-07-31T07:33:40.630Z,1612.00
2022-07-31T07:34:17.953Z,1716.00
2022-07-31T07:35:17.937Z,1828.00
2022-07-31T07:36:23.499Z,1960.00
2022-07-31T07:37:17.908Z,2040.00
2022-07-31T07:38:17.885Z,2040.00
2022-07-31T07:39:17.876Z,2096.00
2022-07-31T07:40:17.854Z,2172.00
2022-07-31T07:41:18.523Z,2228.00
2022-07-31T07:42:17.843Z,2212.00
2022-07-31T07:43:17.805Z,2144.00
2022-07-31T07:44:17.788Z,2080.00
2022-07-31T07:45:17.771Z,2076.00
2022-07-31T07:46:17.756Z,2084.00
2022-07-31T07:47:17.886Z,2112.00
2022-07-31T07:48:17.753Z,2360.00
2022-07-31T07:49:17.878Z,2668.00
2022-07-31T07:50:17.710Z,2888.00
2022-07-31T07:51:17.676Z,3004.00
2022-07-31T07:52:17.675Z,3108.00
2022-07-31T07:53:17.640Z,3192.00
2022-07-31T07:54:17.621Z,3436.00
2022-07-31T07:55:17.601Z,3676.00
2022-07-31T07:56:17.603Z,3760.00
2022-07-31T07:57:17.574Z,3748.00
2022-07-31T07:58:17.584Z,3512.00
2022-07-31T07:59:17.547Z,3100.00
2022-07-31T08:00:17.529Z,2644.00
2022-07-31T08:01:17.583Z,2352.00
2022-07-31T08:02:17.491Z,2244.00
2022-07-31T08:03:48.310Z,2188.00
2022-07-31T08:04:17.452Z,2184.00
2022-07-31T08:05:17.442Z,2188.00
2022-07-31T08:06:17.423Z,2184.00
2022-07-31T08:07:17.418Z,2152.00
2022-07-31T08:08:17.416Z,2156.00
2022-07-31T08:09:17.376Z,2144.00
2022-07-31T08:10:17.359Z,2144.00
2022-07-31T08:11:17.990Z,2180.00
2022-07-31T08:12:17.331Z,2224.00
2022-07-31T08:13:17.373Z,2196.00
2022-07-31T08:14:17.293Z,2232.00
2022-07-31T08:15:17.276Z,2344.00
2022-07-31T08:16:17.269Z,2472.00
2022-07-31T08:17:17.245Z,2548.00
2022-07-31T08:18:17.240Z,2580.00
2022-07-31T08:19:17.231Z,2660.00
2022-07-31T08:20:17.193Z,2688.00
2022-07-31T08:21:17.181Z,2704.00
2022-07-31T08:22:17.161Z,2864.00
2022-07-31T08:23:18.279Z,2968.00
2022-07-31T08:24:17.150Z,3076.00
2022-07-31T08:25:17.117Z,3000.00
2022-07-31T08:26:17.099Z,3096.00
2022-07-31T08:27:17.084Z,2988.00
2022-07-31T08:28:19.537Z,2964.00
2022-07-31T08:29:17.054Z,2996.00
2022-07-31T08:30:17.058Z,3096.00
2022-07-31T08:31:17.025Z,3136.00
2022-07-31T08:32:17.003Z,3136.00
2022-07-31T08:33:16.981Z,3060.00
2022-07-31T08:34:31.385Z,3088.00
2022-07-31T08:35:16.979Z,3028.00
2022-07-31T08:36:16.939Z,2880.00
2022-07-31T08:37:50.954Z,2936.00
2022-07-31T08:38:16.904Z,2984.00
2022-07-31T08:39:17.569Z,2920.00
2022-07-31T08:40:16.906Z,3100.00
2022-07-31T08:41:16.873Z,3300.00
2022-07-31T08:42:16.859Z,3632.00
2022-07-31T08:44:03.355Z,3712.00
2022-07-31T08:44:16.809Z,3888.00
2022-07-31T08:45:16.795Z,3868.00
2022-07-31T08:46:16.802Z,4076.00
2022-07-31T08:47:16.760Z,4248.00
2022-07-31T08:48:16.745Z,4164.00
2022-07-31T08:49:16.758Z,3900.00
2022-07-31T08:50:16.717Z,3528.00
2022-07-31T08:51:16.718Z,3208.00
2022-07-31T08:52:16.684Z,3280.00
2022-07-31T08:53:16.678Z,3156.00
2022-07-31T08:54:16.669Z,3072.00
2022-07-31T08:55:54.974Z,3276.00
2022-07-31T08:56:16.621Z,3416.00
2022-07-31T08:57:16.605Z,3452.00
2022-07-31T08:58:16.587Z,3772.00
2022-07-31T08:59:16.592Z,3956.00
2022-07-31T09:00:16.619Z,4140.00
2022-07-31T09:01:16.611Z,4516.00
2022-07-31T09:02:16.527Z,5028.00
2022-07-31T09:03:16.512Z,5416.00
2022-07-31T09:04:16.492Z,5456.00
2022-07-31T09:05:16.501Z,4884.00
2022-07-31T09:06:16.467Z,4972.00
2022-07-31T09:07:16.453Z,4728.00
2022-07-31T09:08:16.432Z,4544.00
2022-07-31T09:09:16.415Z,4480.00
2022-07-31T09:10:16.417Z,4360.00
2022-07-31T09:11:16.407Z,4212.00
2022-07-31T09:12:16.390Z,4484.00
2022-07-31T09:13:16.368Z,4448.00
2022-07-31T09:14:16.347Z,4164.00
2022-07-31T09:15:16.339Z,3996.00
2022-07-31T09:16:16.348Z,3904.00
2022-07-31T09:17:16.300Z,3800.00
2022-07-31T09:18:16.310Z,3756.00
2022-07-31T09:19:51.089Z,3784.00
2022-07-31T09:20:16.270Z,3916.00
2022-07-31T09:21:16.238Z,4052.00
2022-07-31T09:22:16.222Z,4100.00
2022-07-31T09:23:16.223Z,4092.00
2022-07-31T09:24:16.209Z,4024.00
2022-07-31T09:25:16.173Z,3940.00
2022-07-31T09:26:16.179Z,3860.00
2022-07-31T09:27:16.153Z,3656.00
2022-07-31T09:28:16.165Z,3328.00
2022-07-31T09:29:16.124Z,3060.00
2022-07-31T09:30:16.242Z,2904.00
2022-07-31T09:31:16.085Z,2824.00
2022-07-31T09:32:16.074Z,2800.00
2022-07-31T09:33:16.598Z,2680.00
2022-07-31T09:34:16.060Z,2648.00
2022-07-31T09:35:16.049Z,2684.00
2022-07-31T09:36:16.014Z,2620.00
2022-07-31T09:37:16.001Z,2520.00
2022-07-31T09:38:15.986Z,2360.00
2022-07-31T09:39:26.807Z,2248.00
2022-07-31T09:40:15.954Z,2220.00
2022-07-31T09:41:53.512Z,2152.00
2022-07-31T09:42:16.988Z,2120.00
2022-07-31T09:43:15.908Z,2084.00
2022-07-31T09:44:15.904Z,2112.00
2022-07-31T09:45:15.882Z,2124.00
2022-07-31T09:46:15.885Z,2068.00
2022-07-31T09:47:15.851Z,2056.00
2022-07-31T09:48:26.301Z,2168.00
2022-07-31T09:49:15.899Z,2340.00
2022-07-31T09:50:15.807Z,2392.00
2022-07-31T09:51:15.792Z,2432.00
2022-07-31T09:52:15.803Z,2508.00
2022-07-31T09:53:15.763Z,2600.00
2022-07-31T09:54:15.745Z,2728.00
2022-07-31T09:55:17.083Z,2812.00
2022-07-31T09:56:15.714Z,3016.00
2022-07-31T09:57:15.717Z,3448.00
2022-07-31T09:58:15.705Z,3604.00
2022-07-31T09:59:15.672Z,3756.00
2022-07-31T10:00:17.398Z,3764.00
2022-07-31T10:01:15.679Z,3816.00
2022-07-31T10:02:15.643Z,3816.00
2022-07-31T10:03:15.609Z,4108.00
2022-07-31T10:04:15.617Z,4192.00
2022-07-31T10:05:15.586Z,4324.00
2022-07-31T10:06:16.693Z,4552.00
2022-07-31T10:07:24.319Z,4848.00
2022-07-31T10:08:15.539Z,5212.00
2022-07-31T10:09:15.547Z,5316.00
2022-07-31T10:10:15.506Z,5292.00
2022-07-31T10:11:16.605Z,5100.00
2022-07-31T10:12:16.581Z,4508.00
2022-07-31T10:13:15.486Z,4028.00
2022-07-31T10:14:15.441Z,4076.00
2022-07-31T10:15:15.428Z,4028.00
2022-07-31T10:16:15.437Z,3824.00
2022-07-31T10:17:15.406Z,3928.00
2022-07-31T10:18:15.397Z,4072.00
2022-07-31T10:19:15.367Z,4000.00
2022-07-31T10:20:15.376Z,4276.00
2022-07-31T10:21:15.337Z,4104.00
2022-07-31T10:22:15.322Z,3956.00
2022-07-31T10:23:15.307Z,3740.00
2022-07-31T10:24:15.311Z,3560.00
2022-07-31T10:25:15.293Z,3608.00
2022-07-31T10:26:15.263Z,3876.00
2022-07-31T10:27:15.670Z,3772.00
2022-07-31T10:28:15.236Z,3620.00
2022-07-31T10:29:15.213Z,3436.00
2022-07-31T10:30:15.279Z,3512.00
2022-07-31T10:31:15.202Z,3920.00
2022-07-31T10:32:15.173Z,4392.00
2022-07-31T10:33:41.938Z,4884.00
2022-07-31T10:34:15.142Z,4928.00
2022-07-31T10:35:15.137Z,5452.00
2022-07-31T10:36:15.137Z,5720.00
2022-07-31T10:37:15.096Z,6240.00
2022-07-31T10:38:15.084Z,7432.00
2022-07-31T10:39:15.081Z,7528.00
2022-07-31T10:40:15.059Z,6380.00
2022-07-31T10:41:15.059Z,6124.00
2022-07-31T10:42:15.042Z,5924.00
2022-07-31T10:43:15.015Z,6204.00
2022-07-31T10:44:15.000Z,5736.00
2022-07-31T10:45:14.987Z,5460.00
2022-07-31T10:46:14.979Z,5652.00
2022-07-31T10:47:14.983Z,5304.00
2022-07-31T10:48:14.971Z,4576.00
2022-07-31T10:49:14.974Z,4156.00
2022-07-31T10:50:14.912Z,4388.00
2022-07-31T10:51:14.897Z,4388.00
2022-07-31T10:52:14.886Z,4468.00
2022-07-31T10:53:14.893Z,4508.00
2022-07-31T10:54:14.857Z,4296.00
2022-07-31T10:55:14.845Z,4172.00
2022-07-31T10:56:14.832Z,4216.00
2022-07-31T10:57:14.829Z,4020.00
2022-07-31T10:58:14.830Z,3720.00
2022-07-31T10:59:14.797Z,3308.00
2022-07-31T11:00:14.780Z,3080.00
2022-07-31T11:01:17.666Z,2968.00
2022-07-31T11:02:14.797Z,2944.00
2022-07-31T11:03:14.739Z,3032.00
2022-07-31T11:04:14.736Z,3224.00
2022-07-31T11:05:14.711Z,3524.00
2022-07-31T11:06:14.694Z,4100.00
2022-07-31T11:07:14.697Z,4716.00
2022-07-31T11:08:14.692Z,5176.00
2022-07-31T11:09:14.661Z,5364.00
2022-07-31T11:10:14.638Z,5384.00
2022-07-31T11:11:14.625Z,5244.00
2022-07-31T11:12:14.617Z,4268.00
2022-07-31T11:13:14.621Z,3740.00
2022-07-31T11:14:14.593Z,3380.00
2022-07-31T11:15:14.576Z,3404.00
2022-07-31T11:16:14.578Z,3372.00
2022-07-31T11:17:14.546Z,3288.00
2022-07-31T11:18:21.121Z,3320.00
2022-07-31T11:19:14.537Z,3624.00
2022-07-31T11:20:14.514Z,4116.00
2022-07-31T11:21:36.944Z,4784.00
2022-07-31T11:22:32.144Z,5328.00
2022-07-31T11:23:14.463Z,5164.00
2022-07-31T11:24:14.472Z,4884.00
2022-07-31T11:25:14.451Z,4972.00
2022-07-31T11:26:14.422Z,4932.00
2022-07-31T11:27:14.411Z,4960.00
2022-07-31T11:28:14.394Z,5380.00
2022-07-31T11:30:00.869Z,5980.00
2022-07-31T11:30:14.454Z,6476.00
2022-07-31T11:31:14.352Z,5628.00
2022-07-31T11:32:14.340Z,5024.00
2022-07-31T11:33:14.324Z,4824.00
2022-07-31T11:34:14.309Z,4772.00
2022-07-31T11:35:14.318Z,4796.00
2022-07-31T11:36:14.304Z,4952.00
2022-07-31T11:37:14.271Z,4940.00
2022-07-31T11:38:14.259Z,6144.00
2022-07-31T11:39:14.242Z,5176.00
2022-07-31T11:40:14.565Z,4912.00
2022-07-31T11:41:15.093Z,4776.00
2022-07-31T11:42:14.203Z,4896.00
2022-07-31T11:43:29.483Z,5232.00
2022-07-31T11:44:14.178Z,4480.00
2022-07-31T11:45:14.197Z,4200.00
2022-07-31T11:46:14.165Z,3856.00
2022-07-31T11:48:09.379Z,3472.00
2022-07-31T11:48:14.179Z,3364.00
2022-07-31T11:49:14.137Z,3148.00
2022-07-31T11:50:14.103Z,2960.00
2022-07-31T11:51:14.093Z,2896.00
2022-07-31T11:52:30.244Z,2832.00
2022-07-31T11:53:14.065Z,2988.00
2022-07-31T11:54:14.068Z,3240.00
2022-07-31T11:55:14.039Z,3892.00
2022-07-31T11:56:14.025Z,5368.00
2022-07-31T11:57:14.010Z,6312.00
2022-07-31T11:58:14.014Z,6488.00
2022-07-31T11:59:35.997Z,7852.00
2022-07-31T12:00:26.115Z,20960.00
2022-07-31T12:01:13.960Z,24416.00
2022-07-31T12:02:13.945Z,22944.00
2022-07-31T12:03:13.989Z,26080.00
2022-07-31T12:04:13.929Z,7600.00
2022-07-31T12:05:13.931Z,10184.00
2022-07-31T12:06:13.892Z,13296.00
2022-07-31T12:07:13.898Z,10844.00
2022-07-31T12:08:13.875Z,4832.00
2022-07-31T12:10:00.358Z,3968.00
2022-07-31T12:10:13.841Z,3684.00
2022-07-31T12:11:13.852Z,3976.00
2022-07-31T12:12:13.847Z,4324.00
2022-07-31T12:13:15.918Z,4752.00
2022-07-31T12:14:13.830Z,4568.00
2022-07-31T12:15:13.784Z,5232.00
2022-07-31T12:16:13.780Z,4692.00
2022-07-31T12:17:13.761Z,4892.00
2022-07-31T12:18:13.747Z,5720.00
2022-07-31T12:19:13.737Z,23776.00
2022-07-31T12:20:25.333Z,38080.00
2022-07-31T12:21:13.721Z,8200.00
2022-07-31T12:22:13.706Z,4164.00
2022-07-31T12:23:40.919Z,3380.00
2022-07-31T12:24:13.682Z,3416.00
2022-07-31T12:26:55.606Z,4060.00
2022-07-31T12:27:55.565Z,4028.00
2022-07-31T12:28:55.569Z,3764.00
2022-07-31T12:29:55.547Z,3488.00
2022-07-31T12:30:55.536Z,3624.00
2022-07-31T12:31:55.537Z,4252.00
2022-07-31T12:32:55.503Z,2888.00
2022-07-31T12:33:55.545Z,2688.00